Time;durP1;ratioP1;P1;durP2;ratioP2;P2;SDS_P1;SDS_P2;PMS_P1;PMS_P2;Temp;Humidity;BMP_temperature;BMP_pressure;BME280_temperature;BME280_humidity;BME280_pressure;Samples;Min_cycle;Max_cycle;Signal;HPM_P1;HPM_P2
2021/09/28 00:02:01;;;;;;;3.33;0.90;;;16.40;99.90;;;;;;4897389;29;20685;-94
2021/09/28 00:04:27;;;;;;;1.20;0.97;;;16.30;99.90;;;;;;4896625;29;21194;-94
2021/09/28 00:06:57;;;;;;;2.10;0.90;;;16.30;99.90;;;;;;4898647;29;20653;-95
2021/09/28 00:09:33;;;;;;;0.70;0.70;;;16.20;99.90;;;;;;4892242;29;20653;-95
2021/09/28 00:12:00;;;;;;;1.93;1.00;;;16.10;99.90;;;;;;4896795;29;20988;-94
2021/09/28 00:14:27;;;;;;;3.60;0.93;;;16.00;99.90;;;;;;4890425;29;20740;-94
2021/09/28 00:16:54;;;;;;;0.93;0.77;;;16.00;99.90;;;;;;4899098;29;20648;-94
2021/09/28 00:19:22;;;;;;;1.03;0.70;;;15.90;99.90;;;;;;4888273;29;20744;-94
2021/09/28 00:21:50;;;;;;;1.50;0.97;;;15.70;99.90;;;;;;4890606;29;20999;-93
2021/09/28 00:24:17;;;;;;;0.87;0.70;;;15.50;99.90;;;;;;4893879;29;21069;-94
2021/09/28 00:26:44;;;;;;;1.03;0.90;;;15.40;99.90;;;;;;4893898;29;20741;-93
2021/09/28 00:29:12;;;;;;;0.70;0.67;;;15.20;99.90;;;;;;4883760;29;20736;-94
2021/09/28 00:31:39;;;;;;;0.90;0.80;;;15.20;99.90;;;;;;4882939;29;20637;-94
2021/09/28 00:34:05;;;;;;;1.47;1.07;;;15.10;99.90;;;;;;4885793;29;20643;-94
2021/09/28 00:36:34;;;;;;;0.97;0.80;;;15.10;99.90;;;;;;4895892;29;20668;-93
2021/09/28 00:39:01;;;;;;;2.53;0.90;;;14.90;99.90;;;;;;4890165;29;20638;-93
2021/09/28 00:41:30;;;;;;;1.87;0.90;;;14.70;99.90;;;;;;4904292;29;21075;-96
2021/09/28 00:43:58;;;;;;;0.93;0.70;;;14.60;99.90;;;;;;4895606;29;21117;-96
2021/09/28 00:46:27;;;;;;;2.70;0.90;;;14.40;99.90;;;;;;4903841;29;20633;-95
2021/09/28 00:48:55;;;;;;;2.00;1.00;;;14.30;99.90;;;;;;4912822;29;20621;-96
2021/09/28 00:51:40;;;;;;;;;;;;;;;;;;;;;
2021/09/28 00:54:14;;;;;;;1.40;0.80;;;14.10;99.90;;;;;;4889959;29;20636;-93
2021/09/28 00:56:54;;;;;;;1.93;0.87;;;13.90;99.90;;;;;;4891042;29;21264;-94
2021/09/28 00:59:22;;;;;;;2.63;1.10;;;13.90;99.90;;;;;;4888944;29;20637;-93
2021/09/28 01:04:30;;;;;;;1.77;0.90;;;13.80;99.90;;;;;;4885367;29;20638;-93
2021/09/28 01:06:59;;;;;;;4.53;1.70;;;13.80;99.90;;;;;;4888567;29;20645;-93
2021/09/28 01:09:28;;;;;;;2.93;0.87;;;13.70;99.90;;;;;;4892054;29;20641;-94
2021/09/28 01:11:55;;;;;;;1.47;1.00;;;13.60;99.90;;;;;;4884031;29;20732;-94
2021/09/28 01:14:22;;;;;;;7.40;1.30;;;13.60;99.90;;;;;;4891551;29;20644;-93
2021/09/28 01:16:52;;;;;;;4.97;1.27;;;13.60;99.90;;;;;;4887964;29;20637;-93
2021/09/28 01:19:19;;;;;;;3.87;1.10;;;13.60;99.90;;;;;;4890894;29;20617;-91
2021/09/28 01:21:48;;;;;;;6.17;1.10;;;13.50;99.90;;;;;;4889054;29;21255;-93
2021/09/28 01:24:20;;;;;;;4.20;1.10;;;13.50;99.90;;;;;;4898542;29;21092;-92
2021/09/28 01:26:48;;;;;;;2.83;1.30;;;13.50;99.90;;;;;;4896821;29;20594;-93
2021/09/28 01:29:15;;;;;;;4.60;1.77;;;13.50;99.90;;;;;;4891744;29;20625;-93
2021/09/28 01:31:42;;;;;;;2.07;0.73;;;13.50;99.90;;;;;;4894567;29;20708;-94
2021/09/28 01:34:09;;;;;;;3.50;1.23;;;13.60;99.90;;;;;;4896530;29;21177;-92
2021/09/28 01:36:36;;;;;;;3.50;1.40;;;13.50;99.90;;;;;;4898076;29;20645;-94
2021/09/28 01:39:05;;;;;;;3.10;1.30;;;13.40;99.90;;;;;;4892607;29;20649;-94
2021/09/28 01:41:40;;;;;;;1.70;0.87;;;13.40;99.90;;;;;;4891336;29;21111;-94
2021/09/28 01:44:09;;;;;;;2.93;1.57;;;13.30;99.90;;;;;;4892507;29;21280;-95
2021/09/28 01:46:40;;;;;;;3.30;1.30;;;13.20;99.90;;;;;;4891646;29;20737;-92
2021/09/28 01:49:09;;;;;;;2.10;1.50;;;13.20;99.90;;;;;;4888897;29;21200;-94
2021/09/28 01:51:44;;;;;;;1.50;1.00;;;13.30;99.90;;;;;;4897578;29;20985;-93
2021/09/28 01:54:20;;;;;;;2.00;1.10;;;13.20;99.90;;;;;;4895378;29;20717;-94
2021/09/28 01:57:05;;;;;;;3.57;1.10;;;13.30;99.90;;;;;;4891484;29;20637;-94
2021/09/28 01:59:39;;;;;;;2.80;1.37;;;13.30;99.90;;;;;;4908854;29;20673;-95
2021/09/28 02:02:26;;;;;;;2.73;1.30;;;13.30;99.90;;;;;;4896448;29;20633;-94
2021/09/28 02:04:53;;;;;;;2.63;1.30;;;13.40;99.90;;;;;;4895940;29;21218;-94
2021/09/28 02:07:20;;;;;;;3.13;1.27;;;13.40;99.90;;;;;;4886609;29;20671;-94
2021/09/28 02:09:50;;;;;;;2.03;1.17;;;13.30;99.90;;;;;;4893117;29;20679;-93
2021/09/28 02:14:59;;;;;;;1.73;0.87;;;13.30;99.90;;;;;;4897517;29;20635;-94
2021/09/28 02:17:26;;;;;;;4.20;1.30;;;13.30;99.90;;;;;;4895527;29;20629;-95
2021/09/28 02:19:53;;;;;;;3.33;1.10;;;13.40;99.90;;;;;;4898545;29;20657;-93
2021/09/28 02:22:20;;;;;;;3.10;1.00;;;13.30;99.90;;;;;;4903662;29;20633;-93
2021/09/28 02:24:49;;;;;;;1.80;1.03;;;13.30;99.90;;;;;;4903103;29;20741;-93
2021/09/28 02:27:17;;;;;;;2.33;1.20;;;13.20;99.90;;;;;;4903048;29;20678;-92
2021/09/28 02:29:44;;;;;;;3.87;1.40;;;13.20;99.90;;;;;;4895626;29;21275;-95
2021/09/28 02:32:11;;;;;;;1.87;1.13;;;13.10;99.90;;;;;;4899897;29;21081;-94
2021/09/28 02:34:38;;;;;;;2.50;1.33;;;13.10;99.90;;;;;;4896254;29;21065;-95
2021/09/28 02:37:08;;;;;;;3.10;1.40;;;13.10;99.90;;;;;;4896901;29;20674;-94
2021/09/28 02:39:37;;;;;;;8.20;3.07;;;13.20;99.90;;;;;;4892267;29;20657;-96
2021/09/28 02:42:14;;;;;;;3.40;1.00;;;13.10;99.90;;;;;;4893610;29;20724;-95
2021/09/28 02:44:41;;;;;;;3.63;1.30;;;13.10;99.90;;;;;;4896523;29;21163;-94
2021/09/28 02:47:10;;;;;;;3.70;1.00;;;13.10;99.90;;;;;;4889927;29;20645;-96
2021/09/28 02:49:58;;;;;;;6.03;1.30;;;13.10;99.90;;;;;;4897688;29;20672;-93
2021/09/28 02:52:26;;;;;;;3.30;1.27;;;13.10;99.90;;;;;;4892175;29;20674;-96
2021/09/28 02:54:53;;;;;;;2.30;1.10;;;13.10;99.90;;;;;;4900745;29;20643;-96
2021/09/28 02:57:44;;;;;;;5.03;1.60;;;13.20;99.90;;;;;;4898081;29;20700;-94
2021/09/28 03:00:13;;;;;;;2.30;1.20;;;13.10;99.90;;;;;;4890306;29;20664;-95
2021/09/28 03:02:40;;;;;;;1.93;0.90;;;13.00;99.90;;;;;;4895924;29;20637;-96
2021/09/28 03:05:08;;;;;;;7.40;1.50;;;13.10;99.90;;;;;;4888762;29;20641;-96
2021/09/28 03:07:35;;;;;;;3.60;1.50;;;13.10;99.90;;;;;;4891654;29;20641;-95
2021/09/28 03:10:02;;;;;;;1.50;1.00;;;13.00;99.90;;;;;;4891432;29;21107;-96
2021/09/28 03:15:44;;;;;;;2.30;1.00;;;13.00;99.90;;;;;;4853234;29;20729;-95
2021/09/28 03:18:11;;;;;;;1.83;1.10;;;13.00;99.90;;;;;;4895240;29;20752;-95
2021/09/28 03:20:38;;;;;;;3.20;1.40;;;12.90;99.90;;;;;;4890540;29;20692;-95
2021/09/28 03:23:09;;;;;;;7.03;1.73;;;12.90;99.90;;;;;;4898001;29;20668;-96
2021/09/28 03:25:40;;;;;;;1.97;1.10;;;12.90;99.90;;;;;;4897151;29;20653;-96
2021/09/28 03:28:08;;;;;;;3.77;1.30;;;12.90;99.90;;;;;;4892697;29;20649;-96
2021/09/28 03:30:37;;;;;;;3.70;1.50;;;12.90;99.90;;;;;;4892428;29;20768;-95
2021/09/28 03:33:06;;;;;;;3.77;1.40;;;12.90;99.90;;;;;;4888696;29;21193;-94
2021/09/28 03:35:33;;;;;;;2.90;1.60;;;12.90;99.90;;;;;;4892057;29;20720;-95
2021/09/28 03:38:00;;;;;;;3.63;1.40;;;12.80;99.90;;;;;;4903406;29;20692;-95
2021/09/28 03:40:29;;;;;;;3.43;1.30;;;12.80;99.90;;;;;;4906643;29;20761;-95
2021/09/28 03:42:58;;;;;;;3.43;1.40;;;12.70;99.90;;;;;;4889580;29;20649;-95
2021/09/28 03:45:27;;;;;;;4.07;1.47;;;12.70;99.90;;;;;;4890784;29;20656;-96
2021/09/28 03:47:56;;;;;;;2.23;1.33;;;12.70;99.90;;;;;;4897635;29;20641;-96
2021/09/28 03:50:31;;;;;;;3.33;1.10;;;12.70;99.90;;;;;;4893174;29;20684;-96
2021/09/28 03:52:59;;;;;;;2.30;1.20;;;12.70;99.90;;;;;;4886805;29;20629;-96
2021/09/28 03:55:26;;;;;;;2.83;1.03;;;12.60;99.90;;;;;;4899434;29;20625;-96
2021/09/28 03:57:54;;;;;;;2.73;1.03;;;12.60;99.90;;;;;;4899516;29;21176;-95
2021/09/28 04:00:23;;;;;;;4.03;1.40;;;12.50;99.90;;;;;;4897263;29;20637;-94
2021/09/28 04:02:50;;;;;;;5.40;1.30;;;12.50;99.90;;;;;;4913167;29;20634;-95
2021/09/28 04:05:18;;;;;;;9.10;2.83;;;12.40;99.90;;;;;;4911039;29;20666;-95
2021/09/28 04:07:47;;;;;;;3.10;1.50;;;12.40;99.90;;;;;;4914401;29;20621;-94
2021/09/28 04:10:14;;;;;;;4.07;1.70;;;12.30;99.90;;;;;;4900317;29;20684;-93
2021/09/28 04:12:41;;;;;;;2.47;1.23;;;12.20;99.90;;;;;;4895397;29;20700;-96
2021/09/28 04:15:09;;;;;;;3.73;1.50;;;12.20;99.90;;;;;;4898438;29;20662;-95
2021/09/28 04:17:36;;;;;;;2.53;1.30;;;12.10;99.90;;;;;;4891023;29;20630;-95
2021/09/28 04:20:08;;;;;;;5.90;1.50;;;12.10;99.90;;;;;;4892992;29;20685;-95
2021/09/28 04:22:35;;;;;;;2.30;1.50;;;12.00;99.90;;;;;;4888029;29;20677;-96
2021/09/28 04:25:08;;;;;;;3.67;1.67;;;12.00;99.90;;;;;;4882361;29;20813;-95
2021/09/28 04:27:37;;;;;;;4.13;1.50;;;12.00;99.90;;;;;;4884564;29;20702;-95
2021/09/28 04:30:04;;;;;;;3.23;1.60;;;11.90;99.90;;;;;;4898337;29;20665;-94
2021/09/28 04:32:32;;;;;;;6.80;1.77;;;11.90;99.90;;;;;;4903526;29;20645;-96
2021/09/28 04:34:59;;;;;;;5.90;1.63;;;11.90;99.90;;;;;;4913129;29;20665;-95
2021/09/28 04:37:26;;;;;;;2.40;1.50;;;11.80;99.90;;;;;;4905096;29;20648;-95
2021/09/28 04:39:53;;;;;;;3.43;1.70;;;11.80;99.90;;;;;;4916963;29;20656;-95
2021/09/28 04:42:27;;;;;;;8.37;1.90;;;11.80;99.90;;;;;;4904219;29;20678;-96
2021/09/28 04:45:04;;;;;;;4.33;1.90;;;11.80;99.90;;;;;;4910365;29;20617;-96
2021/09/28 04:53:03;;;;;;;3.43;1.73;;;11.70;99.90;;;;;;4894848;29;20618;-96
2021/09/28 04:55:32;;;;;;;3.77;1.67;;;11.70;99.90;;;;;;4895800;29;20629;-94
2021/09/28 04:58:00;;;;;;;4.20;1.87;;;11.80;99.90;;;;;;4897408;29;20669;-94
2021/09/28 05:00:52;;;;;;;4.20;1.97;;;11.80;99.90;;;;;;4900160;29;20658;-94
2021/09/28 05:03:21;;;;;;;3.63;1.77;;;11.90;99.90;;;;;;4890849;29;20634;-93
2021/09/28 05:05:49;;;;;;;4.90;2.00;;;11.90;99.90;;;;;;4898228;29;20650;-93
2021/09/28 05:08:16;;;;;;;4.30;2.50;;;11.80;99.90;;;;;;4903284;29;20702;-93
2021/09/28 05:10:43;;;;;;;3.37;1.90;;;11.90;99.90;;;;;;4915065;29;20665;-94
2021/09/28 05:13:28;;;;;;;3.53;1.80;;;11.90;99.90;;;;;;4915924;29;20625;-94
2021/09/28 05:15:58;;;;;;;3.53;2.57;;;11.90;99.90;;;;;;4912452;29;20647;-94
2021/09/28 05:18:25;;;;;;;4.77;2.20;;;12.00;99.90;;;;;;4918022;29;20626;-93
2021/09/28 05:21:00;;;;;;;4.03;2.40;;;12.10;99.90;;;;;;4917509;29;20686;-93
2021/09/28 05:23:28;;;;;;;4.47;2.77;;;12.10;99.90;;;;;;4907951;29;20625;-93
2021/09/28 05:25:56;;;;;;;5.90;2.93;;;12.20;99.90;;;;;;4907658;29;20634;-95
2021/09/28 05:29:01;;;;;;;4.73;2.80;;;12.20;99.90;;;;;;4908584;29;20673;-94
2021/09/28 05:31:28;;;;;;;3.10;2.80;;;12.20;99.90;;;;;;4907932;29;20645;-94
2021/09/28 05:33:55;;;;;;;3.90;3.17;;;12.20;99.90;;;;;;4906256;29;20663;-93
2021/09/28 05:39:03;;;;;;;5.50;3.53;;;12.40;99.90;;;;;;4912544;29;20634;-93
2021/09/28 05:41:43;;;;;;;4.70;3.10;;;12.50;99.90;;;;;;4916219;29;20653;-95
2021/09/28 05:44:15;;;;;;;3.60;3.30;;;12.50;99.90;;;;;;4906637;29;20641;-93
2021/09/28 05:46:42;;;;;;;5.20;3.00;;;12.50;99.90;;;;;;4910317;29;20635;-94
2021/09/28 05:49:10;;;;;;;5.27;3.00;;;12.50;99.90;;;;;;4909563;29;20713;-92
2021/09/28 05:51:37;;;;;;;5.00;3.70;;;12.50;99.90;;;;;;4915188;29;20636;-93
2021/09/28 05:54:07;;;;;;;7.73;3.37;;;12.50;99.90;;;;;;4911380;29;20665;-93
2021/09/28 05:56:38;;;;;;;6.23;5.23;;;12.40;99.90;;;;;;4914547;29;20629;-93
2021/09/28 05:59:05;;;;;;;6.50;5.03;;;12.30;99.90;;;;;;4910341;29;20645;-94
2021/09/28 06:01:35;;;;;;;6.53;4.27;;;12.40;99.90;;;;;;4915490;29;20746;-93
2021/09/28 06:04:02;;;;;;;7.13;4.77;;;12.30;99.90;;;;;;4912130;29;20643;-93
2021/09/28 06:06:29;;;;;;;6.97;5.40;;;12.30;99.90;;;;;;4909318;29;20681;-92
2021/09/28 06:08:58;;;;;;;6.40;4.63;;;12.30;99.90;;;;;;4910393;29;20633;-93
2021/09/28 06:11:28;;;;;;;6.50;5.83;;;12.30;99.90;;;;;;4915612;29;20669;-93
2021/09/28 06:14:02;;;;;;;8.33;4.40;;;12.40;99.90;;;;;;4912006;29;20653;-92
2021/09/28 06:16:29;;;;;;;6.27;4.40;;;12.40;99.90;;;;;;4913921;29;20625;-93
2021/09/28 06:19:07;;;;;;;5.90;5.17;;;12.30;99.90;;;;;;4913414;29;20657;-92
2021/09/28 06:21:38;;;;;;;8.00;6.00;;;12.50;99.90;;;;;;4911824;29;20652;-93
2021/09/28 06:24:11;;;;;;;9.37;5.70;;;12.50;99.90;;;;;;4905416;29;20641;-93
2021/09/28 06:26:39;;;;;;;9.80;6.30;;;12.60;99.90;;;;;;4916579;29;20661;-93
2021/09/28 06:29:06;;;;;;;6.27;4.97;;;12.60;99.90;;;;;;4907165;29;20717;-93
2021/09/28 06:31:37;;;;;;;6.30;4.87;;;12.70;99.90;;;;;;4913423;29;20617;-95
2021/09/28 06:34:04;;;;;;;4.90;4.50;;;12.70;99.90;;;;;;4911749;29;20632;-94
2021/09/28 06:36:33;;;;;;;7.90;5.60;;;12.70;99.90;;;;;;4913687;29;20673;-96
2021/09/28 06:39:00;;;;;;;7.27;5.97;;;12.90;99.90;;;;;;4913249;29;20697;-94
2021/09/28 06:41:28;;;;;;;6.70;4.73;;;13.10;99.90;;;;;;4910683;29;20777;-95
2021/09/28 06:43:56;;;;;;;5.07;3.93;;;13.20;99.90;;;;;;4912599;29;20708;-96
2021/09/28 06:46:25;;;;;;;6.67;3.97;;;13.30;99.90;;;;;;4915985;29;20651;-94
2021/09/28 06:49:01;;;;;;;5.13;3.53;;;13.30;99.90;;;;;;4911744;29;20673;-92
2021/09/28 06:51:30;;;;;;;7.63;5.40;;;13.40;99.90;;;;;;4909687;29;20577;-93
2021/09/28 06:53:58;;;;;;;4.47;3.50;;;13.60;99.90;;;;;;4910358;29;20626;-93
2021/09/28 06:56:25;;;;;;;5.87;4.40;;;13.70;99.90;;;;;;4908424;29;20649;-91
2021/09/28 06:58:53;;;;;;;8.70;4.30;;;13.70;99.90;;;;;;4911722;29;20645;-91
2021/09/28 07:01:20;;;;;;;5.77;4.07;;;13.60;99.90;;;;;;4907747;29;20633;-92
2021/09/28 07:03:47;;;;;;;7.10;4.77;;;13.70;99.90;;;;;;4904605;29;20681;-93
2021/09/28 07:06:14;;;;;;;11.70;4.23;;;13.70;99.90;;;;;;4908742;29;20665;-92
2021/09/28 07:08:41;;;;;;;6.97;4.37;;;13.80;99.90;;;;;;4915957;29;20639;-91
2021/09/28 07:11:10;;;;;;;7.87;3.60;;;13.90;99.90;;;;;;4906662;29;20649;-92
2021/09/28 07:14:19;;;;;;;9.67;4.53;;;14.00;99.90;;;;;;4912444;29;20626;-91
2021/09/28 07:17:04;;;;;;;8.20;5.60;;;14.00;99.90;;;;;;4910650;29;20677;-92
2021/09/28 07:23:19;;;;;;;7.07;5.13;;;14.20;99.90;;;;;;4766196;29;20695;-92
2021/09/28 07:39:43;;;;;;;6.17;5.60;;;14.50;99.90;;;;;;4842513;29;20659;-91
2021/09/28 07:49:21;;;;;;;;;;;;;;;;;;;;;
2021/09/28 07:52:27;;;;;;;8.50;6.50;;;14.80;99.90;;;;;;4893583;29;20636;-93
2021/09/28 08:08:22;;;;;;;6.80;5.90;;;15.30;99.90;;;;;;4764563;29;20638;-94
2021/09/28 08:10:49;;;;;;;10.23;5.93;;;15.30;99.90;;;;;;4830146;29;21035;-93
2021/09/28 08:13:16;;;;;;;12.23;6.73;;;15.50;99.90;;;;;;4853608;29;20674;-92
2021/09/28 08:15:44;;;;;;;6.30;5.47;;;15.80;99.90;;;;;;4851518;29;20670;-93
2021/09/28 08:18:12;;;;;;;12.00;5.40;;;15.70;99.90;;;;;;4857613;29;20665;-92
2021/09/28 08:20:39;;;;;;;7.37;4.50;;;16.00;99.90;;;;;;4890054;29;20641;-92
2021/09/28 08:23:13;;;;;;;5.43;5.10;;;16.30;99.90;;;;;;4892106;29;20753;-94
2021/09/28 08:29:08;;;;;;;7.40;5.00;;;16.50;99.90;;;;;;4892291;29;20664;-91
2021/09/28 08:31:33;;;;;;;6.00;3.90;;;16.60;99.90;;;;;;4887427;29;20596;-90
2021/09/28 08:34:04;;;;;;;4.77;3.93;;;17.10;99.90;;;;;;4889350;29;20634;-90
2021/09/28 08:36:32;;;;;;;6.93;4.40;;;16.80;99.90;;;;;;4890217;29;20733;-91
2021/09/28 08:39:11;;;;;;;4.33;3.90;;;16.60;99.90;;;;;;4903351;29;20697;-92
2021/09/28 08:41:51;;;;;;;4.30;3.87;;;16.40;99.90;;;;;;4901318;29;20648;-90
2021/09/28 08:44:29;;;;;;;4.87;4.37;;;16.10;99.90;;;;;;4899092;29;20656;-92
2021/09/28 08:47:05;;;;;;;10.73;5.50;;;15.90;99.90;;;;;;4896425;29;20637;-93
2021/09/28 08:49:38;;;;;;;6.60;5.43;;;16.10;99.90;;;;;;4902768;29;20653;-93
2021/09/28 08:52:10;;;;;;;4.90;4.27;;;16.00;99.90;;;;;;4902517;29;21051;-91
2021/09/28 08:54:40;;;;;;;4.33;3.57;;;16.20;99.90;;;;;;4897557;29;21046;-93
2021/09/28 08:57:12;;;;;;;4.17;3.77;;;16.20;99.90;;;;;;4893500;29;20655;-92
2021/09/28 08:59:59;;;;;;;4.83;4.33;;;16.30;99.90;;;;;;4891398;29;20645;-91
2021/09/28 09:08:21;;;;;;;5.20;3.77;;;16.90;99.90;;;;;;4882238;29;20637;-90
2021/09/28 09:11:00;;;;;;;4.40;3.63;;;17.30;99.90;;;;;;4889294;29;21073;-92
2021/09/28 09:13:36;;;;;;;4.70;3.43;;;17.40;99.90;;;;;;4892949;29;21220;-93
2021/09/28 09:16:07;;;;;;;3.43;2.40;;;17.20;99.90;;;;;;4890033;29;20642;-91
2021/09/28 09:18:38;;;;;;;2.67;2.10;;;17.30;99.90;;;;;;4888046;29;20641;-91
2021/09/28 09:21:17;;;;;;;3.87;2.40;;;17.70;99.90;;;;;;4891238;29;20640;-92
2021/09/28 09:23:53;;;;;;;4.07;2.70;;;17.80;99.90;;;;;;4890763;29;20665;-92
2021/09/28 09:26:22;;;;;;;4.13;2.93;;;18.20;99.90;;;;;;4892787;29;20760;-92
2021/09/28 09:28:50;;;;;;;3.50;2.47;;;18.40;99.90;;;;;;4892778;29;20991;-92
2021/09/28 09:31:29;;;;;;;7.63;3.40;;;18.40;99.90;;;;;;4898059;29;20661;-92
2021/09/28 09:34:06;;;;;;;5.10;2.80;;;18.70;99.90;;;;;;4889757;29;20665;-90
2021/09/28 09:36:37;;;;;;;4.60;2.93;;;18.40;99.90;;;;;;4892223;29;20703;-92
2021/09/28 09:39:09;;;;;;;4.93;2.40;;;18.20;99.90;;;;;;4895476;29;20786;-91
2021/09/28 09:41:41;;;;;;;5.43;2.50;;;18.50;99.90;;;;;;4900146;29;21253;-91
2021/09/28 09:44:10;;;;;;;2.43;1.90;;;18.70;99.90;;;;;;4886829;29;20683;-91
2021/09/28 09:46:42;;;;;;;4.20;2.50;;;19.20;99.90;;;;;;4888101;29;20705;-91
2021/09/28 09:49:11;;;;;;;5.53;2.77;;;19.10;99.90;;;;;;4891845;29;20658;-92
2021/09/28 09:51:51;;;;;;;4.20;2.47;;;19.40;99.90;;;;;;4899986;29;20675;-92
2021/09/28 09:54:29;;;;;;;4.90;2.93;;;19.40;99.90;;;;;;4898932;29;20648;-92
2021/09/28 09:56:59;;;;;;;3.87;2.37;;;19.50;99.90;;;;;;4907220;29;20637;-92
2021/09/28 09:59:26;;;;;;;9.03;3.17;;;19.30;99.90;;;;;;4897112;29;21058;-91
2021/09/28 10:01:54;;;;;;;2.77;2.23;;;19.40;99.90;;;;;;4889608;29;20743;-92
2021/09/28 10:04:23;;;;;;;4.73;2.83;;;19.90;99.90;;;;;;4889849;29;21192;-93
2021/09/28 10:07:01;;;;;;;3.77;2.00;;;19.50;99.90;;;;;;4896525;29;20644;-93
2021/09/28 10:09:31;;;;;;;3.90;2.50;;;18.80;99.90;;;;;;4893709;29;20676;-93
2021/09/28 10:12:09;;;;;;;3.57;2.27;;;18.30;99.90;;;;;;4894558;29;20651;-91
2021/09/28 10:14:40;;;;;;;2.20;1.97;;;18.00;99.90;;;;;;4888480;29;20633;-92
2021/09/28 10:17:39;;;;;;;4.87;2.23;;;17.90;99.90;;;;;;4889171;29;20636;-92
2021/09/28 10:20:09;;;;;;;2.77;2.07;;;18.50;99.90;;;;;;4878344;29;20668;-92
2021/09/28 10:22:50;;;;;;;4.80;2.30;;;18.50;99.90;;;;;;4889126;29;20745;-92
2021/09/28 10:28:56;;;;;;;2.60;2.00;;;18.00;99.90;;;;;;4887074;29;20637;-94
2021/09/28 10:32:47;;;;;;;;;;;;;;;;;;;;;
2021/09/28 10:35:17;;;;;;;2.83;1.90;;;19.10;99.90;;;;;;4893566;29;20618;-95
2021/09/28 10:38:03;;;;;;;4.40;2.40;;;19.00;99.90;;;;;;4895209;29;20738;-95
2021/09/28 10:40:54;;;;;;;4.73;1.97;;;19.60;99.90;;;;;;4896960;29;20752;-96
2021/09/28 10:43:36;;;;;;;3.50;1.73;;;20.30;99.90;;;;;;4891208;29;20666;-96
2021/09/28 10:47:10;;;;;;;;;;;;;;;;;;;;;
2021/09/28 10:49:42;;;;;;;3.37;1.83;;;20.40;99.90;;;;;;4893635;29;20677;-96
2021/09/28 10:59:02;;;;;;;4.37;1.90;;;20.40;98.20;;;;;;4775221;29;21058;-95
2021/09/28 11:01:32;;;;;;;7.30;2.17;;;21.00;97.00;;;;;;4790882;29;20646;-96
2021/09/28 11:04:22;;;;;;;3.87;2.53;;;21.10;98.00;;;;;;4893557;29;20694;-96
2021/09/28 11:07:19;;;;;;;;;;;;;;;;;;;;;
2021/09/28 11:09:58;;;;;;;4.63;2.50;;;21.20;96.40;;;;;;4895545;29;20649;-94
2021/09/28 11:12:40;;;;;;;3.20;1.93;;;21.00;99.20;;;;;;4897548;29;20639;-95
2021/09/28 11:15:41;;;;;;;3.97;1.90;;;21.30;94.60;;;;;;4887766;29;21204;-95
2021/09/28 11:18:15;;;;;;;3.80;1.67;;;22.00;94.20;;;;;;4890798;29;20694;-94
2021/09/28 11:24:13;;;;;;;4.30;2.27;;;22.60;94.10;;;;;;4825037;29;20709;-94
2021/09/28 11:27:11;;;;;;;;;;;;;;;;;;;;;
2021/09/28 11:29:43;;;;;;;4.73;3.00;;;22.30;93.20;;;;;;4829379;29;20627;-95
2021/09/28 11:32:38;;;;;;;3.73;2.43;;;22.90;92.50;;;;;;4822463;29;20660;-94
2021/09/28 11:35:35;;;;;;;2.90;2.60;;;22.60;93.10;;;;;;4884239;29;20653;-95
2021/09/28 11:51:26;;;;;;;;;;;;;;;;;;;;;
2021/09/28 12:00:42;;;;;;;2.97;2.63;;;22.50;89.20;;;;;;4748615;30;20635;-96
2021/09/28 12:03:11;;;;;;;3.67;2.80;;;22.20;90.40;;;;;;4886531;29;20724;-93
2021/09/28 12:06:03;;;;;;;3.97;3.00;;;22.20;90.80;;;;;;4894393;29;20649;-94
2021/09/28 12:08:36;;;;;;;3.27;2.97;;;22.80;91.00;;;;;;4894423;29;21010;-96
2021/09/28 12:39:10;;;;;;;4.13;3.40;;;22.30;92.60;;;;;;4740922;30;20686;-95
2021/09/28 12:48:43;;;;;;;4.80;3.30;;;21.50;96.10;;;;;;4698862;30;20716;-95
2021/09/28 12:51:54;;;;;;;3.33;3.03;;;21.80;93.50;;;;;;4840921;29;20683;-95
2021/09/28 12:54:29;;;;;;;4.63;2.87;;;21.70;91.70;;;;;;4890314;29;20657;-96
2021/09/28 12:57:08;;;;;;;4.47;3.00;;;22.40;90.60;;;;;;4902141;29;20665;-95
2021/09/28 12:59:51;;;;;;;3.20;2.93;;;22.60;90.70;;;;;;4910065;29;20618;-95
2021/09/28 13:02:34;;;;;;;6.00;3.17;;;23.00;91.60;;;;;;4907324;29;20704;-96
2021/09/28 13:05:20;;;;;;;3.83;3.00;;;23.10;90.20;;;;;;4910017;29;20669;-94
2021/09/28 13:08:08;;;;;;;3.40;2.80;;;22.60;91.50;;;;;;4908734;29;20641;-95
2021/09/28 13:10:40;;;;;;;3.20;2.90;;;23.00;91.80;;;;;;4902711;29;20741;-95
2021/09/28 13:13:11;;;;;;;4.20;3.20;;;22.70;90.50;;;;;;4890662;29;20992;-94
2021/09/28 13:15:42;;;;;;;7.73;3.50;;;22.10;91.40;;;;;;4892681;29;20642;-95
2021/09/28 13:18:23;;;;;;;5.40;2.80;;;21.90;92.50;;;;;;4890769;29;21192;-95
2021/09/28 13:23:51;;;;;;;5.23;3.27;;;22.10;91.20;;;;;;4893703;29;20697;-95
2021/09/28 13:26:38;;;;;;;5.10;3.20;;;22.00;92.90;;;;;;4898014;29;20933;-95
2021/09/28 13:29:14;;;;;;;3.97;3.20;;;21.80;92.70;;;;;;4894672;29;20685;-96
2021/09/28 13:35:15;;;;;;;3.17;2.70;;;22.10;92.50;;;;;;4886823;29;20736;-96
2021/09/28 13:37:59;;;;;;;;;;;;;;;;;;;;;
2021/09/28 13:40:26;;;;;;;3.70;2.70;;;22.30;91.10;;;;;;4897340;29;21246;-95
2021/09/28 13:42:54;;;;;;;2.83;2.57;;;22.40;92.00;;;;;;4894659;29;20709;-95
2021/09/28 13:45:23;;;;;;;3.90;2.93;;;22.40;91.50;;;;;;4895613;29;20672;-95
2021/09/28 13:47:51;;;;;;;3.00;2.80;;;22.20;92.00;;;;;;4896790;29;20757;-95
2021/09/28 13:50:37;;;;;;;3.87;3.23;;;21.80;91.10;;;;;;4891173;29;20676;-94
2021/09/28 13:53:10;;;;;;;3.87;2.80;;;21.70;92.00;;;;;;4893188;29;20648;-95
2021/09/28 13:55:43;;;;;;;4.57;3.03;;;21.70;93.00;;;;;;4894110;29;20681;-94
2021/09/28 13:58:12;;;;;;;5.53;2.80;;;21.50;92.70;;;;;;4894311;29;20592;-93
2021/09/28 14:00:50;;;;;;;3.27;2.97;;;21.70;92.40;;;;;;4895264;29;20673;-96
2021/09/28 14:03:17;;;;;;;2.70;2.50;;;21.80;92.60;;;;;;4890258;29;20669;-94
2021/09/28 14:05:45;;;;;;;2.90;2.70;;;21.80;93.20;;;;;;4896377;29;20673;-93
2021/09/28 14:08:17;;;;;;;3.40;2.67;;;21.80;91.60;;;;;;4890629;29;20639;-94
2021/09/28 14:10:48;;;;;;;2.80;2.40;;;21.30;93.30;;;;;;4898508;29;20768;-94
2021/09/28 14:13:16;;;;;;;3.30;2.33;;;21.20;94.30;;;;;;4898907;29;20620;-93
2021/09/28 14:15:46;;;;;;;3.37;2.60;;;21.30;96.10;;;;;;4894655;29;21158;-93
2021/09/28 14:18:14;;;;;;;4.07;3.60;;;21.20;94.50;;;;;;4900088;29;20747;-95
2021/09/28 14:20:44;;;;;;;3.50;2.47;;;21.00;95.70;;;;;;4895456;29;20717;-94
2021/09/28 14:23:22;;;;;;;2.77;2.50;;;20.70;95.30;;;;;;4897099;29;20736;-93
2021/09/28 14:25:49;;;;;;;2.73;2.53;;;20.60;97.70;;;;;;4897226;29;21239;-95
2021/09/28 14:28:17;;;;;;;2.67;2.47;;;20.50;98.80;;;;;;4897805;29;20625;-94
2021/09/28 14:30:59;;;;;;;4.00;2.50;;;20.50;99.00;;;;;;4893296;29;20712;-95
2021/09/28 14:33:28;;;;;;;2.73;2.43;;;20.50;96.30;;;;;;4897252;29;20630;-93
2021/09/28 14:35:57;;;;;;;2.50;1.97;;;20.60;97.80;;;;;;4894225;29;20643;-94
2021/09/28 14:38:26;;;;;;;2.93;2.03;;;20.50;96.10;;;;;;4892339;29;20668;-93
2021/09/28 14:40:53;;;;;;;4.47;2.63;;;20.60;97.40;;;;;;4896282;29;20720;-95
2021/09/28 14:43:28;;;;;;;2.90;2.27;;;20.70;97.50;;;;;;4893524;29;21179;-94
2021/09/28 14:45:58;;;;;;;3.37;2.40;;;20.60;99.00;;;;;;4895890;29;20724;-95
2021/09/28 14:48:34;;;;;;;3.60;2.60;;;20.50;97.00;;;;;;4898638;29;20669;-95
2021/09/28 14:51:07;;;;;;;2.33;2.23;;;20.70;97.80;;;;;;4897018;29;20664;-94
2021/09/28 14:53:48;;;;;;;3.10;2.30;;;20.60;98.90;;;;;;4899948;29;20653;-95
2021/09/28 14:56:22;;;;;;;2.20;2.00;;;20.50;97.80;;;;;;4892920;29;21405;-95
2021/09/28 14:58:51;;;;;;;4.20;2.43;;;20.30;97.20;;;;;;4896068;29;20652;-94
2021/09/28 15:01:23;;;;;;;2.70;2.50;;;20.30;98.40;;;;;;4888608;29;20664;-95
2021/09/28 15:04:02;;;;;;;2.63;2.30;;;20.20;98.00;;;;;;4894560;29;20641;-93
2021/09/28 15:06:37;;;;;;;2.60;2.40;;;20.10;98.10;;;;;;4891342;29;20644;-95
2021/09/28 15:09:09;;;;;;;4.03;1.90;;;20.00;99.10;;;;;;4895841;29;20723;-94
2021/09/28 15:11:40;;;;;;;2.43;2.23;;;20.10;99.90;;;;;;4900803;29;20661;-94
2021/09/28 15:14:13;;;;;;;2.87;2.20;;;20.10;99.90;;;;;;4896062;29;20677;-96
2021/09/28 15:16:48;;;;;;;2.40;2.00;;;19.70;99.90;;;;;;4884852;29;20702;-94
2021/09/28 15:19:17;;;;;;;1.80;1.70;;;19.80;99.90;;;;;;4894929;29;20740;-94
2021/09/28 15:21:52;;;;;;;1.70;1.60;;;19.80;99.90;;;;;;4895780;29;20708;-93
2021/09/28 15:24:33;;;;;;;3.10;1.90;;;19.80;99.90;;;;;;4894717;29;20669;-93
2021/09/28 15:27:07;;;;;;;3.50;1.97;;;19.80;99.90;;;;;;4894395;29;20633;-95
2021/09/28 15:29:38;;;;;;;3.80;1.93;;;19.80;99.90;;;;;;4893344;29;20933;-96
2021/09/28 15:32:19;;;;;;;5.27;2.63;;;19.50;99.90;;;;;;4890408;29;21398;-95
2021/09/28 15:34:49;;;;;;;5.07;2.37;;;19.40;99.90;;;;;;4896507;29;20640;-96
2021/09/28 15:37:19;;;;;;;2.27;2.07;;;19.30;99.90;;;;;;4890739;29;20637;-95
2021/09/28 15:40:22;;;;;;;4.83;2.27;;;19.30;99.90;;;;;;4897618;29;20693;-96
2021/09/28 16:11:59;;;;;;;2.30;2.10;;;18.40;99.90;;;;;;4927795;29;20667;-96
2021/09/28 16:15:24;;;;;;;1.60;1.50;;;18.30;99.90;;;;;;4917127;29;20739;-96